createdAt,value
2017-02-22T00:00:32.483Z,3.52
2017-02-22T00:01:42.909Z,3.47
2017-02-22T00:02:53.232Z,3.54
2017-02-22T00:04:03.583Z,3.58
2017-02-22T00:05:13.791Z,3.54
2017-02-22T00:06:23.657Z,3.5
2017-02-22T00:07:33.540Z,3.52
2017-02-22T00:08:43.431Z,3.54
2017-02-22T00:09:53.761Z,3.55
2017-02-22T00:11:03.935Z,3.54
2017-02-22T00:12:13.872Z,3.61
2017-02-22T00:13:24.143Z,3.55
2017-02-22T00:14:34.023Z,3.55
2017-02-22T00:15:43.908Z,3.61
2017-02-22T00:16:54.048Z,3.69
2017-02-22T00:18:03.560Z,3.65
2017-02-22T00:19:13.880Z,3.77
2017-02-22T00:20:23.780Z,3.69
2017-02-22T00:21:34.064Z,3.73
2017-02-22T00:22:44.594Z,3.72
2017-02-22T00:23:54.070Z,3.73
2017-02-22T00:25:04.330Z,3.73
2017-02-22T00:26:14.210Z,3.73
2017-02-22T00:27:24.096Z,3.72
2017-02-22T00:28:34.610Z,3.72
2017-02-22T00:29:44.855Z,3.73
2017-02-22T00:30:55.135Z,3.75
2017-02-22T00:32:04.666Z,3.76
2017-02-22T00:33:14.951Z,3.8
2017-02-22T00:34:25.132Z,3.75
2017-02-22T00:35:34.998Z,3.8
2017-02-22T00:36:44.594Z,3.83
2017-02-22T00:37:54.038Z,3.82
2017-02-22T00:39:03.962Z,3.87
2017-02-22T00:40:13.670Z,3.82
2017-02-22T00:41:23.630Z,3.93
2017-02-22T00:42:33.338Z,3.85
2017-02-22T00:43:43.208Z,3.94
2017-02-22T00:44:53.532Z,3.91
2017-02-22T00:46:04.053Z,3.9
2017-02-22T00:47:14.334Z,3.93
2017-02-22T00:48:24.172Z,3.94
2017-02-22T00:49:34.438Z,4.01
2017-02-22T00:50:44.795Z,4.01
2017-02-22T00:51:55.001Z,4.03
2017-02-22T00:53:05.330Z,4.03
2017-02-22T00:54:15.046Z,4.03
2017-02-22T00:55:25.318Z,4.09
2017-02-22T00:56:35.175Z,4.09
2017-02-22T00:57:45.339Z,4.05
2017-02-22T00:58:54.801Z,4.12
2017-02-22T01:00:05.077Z,4.2
2017-02-22T01:01:15.026Z,4.08
2017-02-22T01:02:25.360Z,4.15
2017-02-22T01:03:35.086Z,4.11
2017-02-22T01:04:45.366Z,4.22
2017-02-22T01:05:55.637Z,4.18
2017-02-22T01:07:05.893Z,4.19
2017-02-22T01:08:15.375Z,4.16
2017-02-22T01:09:25.104Z,4.15
2017-02-22T01:10:35.404Z,4.23
2017-02-22T01:11:45.356Z,4.2
2017-02-22T01:12:55.315Z,4.23
2017-02-22T01:14:04.481Z,4.09
2017-02-22T01:15:15.043Z,4.2
2017-02-22T01:16:24.908Z,4.12
2017-02-22T01:17:35.163Z,4.25
2017-02-22T01:18:44.632Z,4.27
2017-02-22T01:19:55.013Z,4.16
2017-02-22T01:21:05.182Z,4.28
2017-02-22T01:22:15.109Z,4.23
2017-02-22T01:23:25.019Z,4.27
2017-02-22T01:24:35.430Z,4.25
2017-02-22T01:25:45.752Z,4.37
2017-02-22T01:26:56.273Z,4.25
2017-02-22T01:28:06.623Z,4.2
2017-02-22T01:29:16.919Z,4.25
2017-02-22T01:30:26.791Z,4.33
2017-02-22T01:31:37.075Z,4.34
2017-02-22T01:32:47.237Z,4.34
2017-02-22T01:33:57.083Z,4.27
2017-02-22T01:35:07.596Z,4.31
2017-02-22T01:36:17.505Z,4.4
2017-02-22T01:37:27.798Z,4.31
2017-02-22T01:38:37.976Z,4.3
2017-02-22T01:39:48.273Z,4.31
2017-02-22T01:40:58.135Z,4.3
2017-02-22T01:42:08.398Z,4.37
2017-02-22T01:43:18.757Z,4.37
2017-02-22T01:44:29.295Z,4.37
2017-02-22T01:45:39.606Z,4.4
2017-02-22T01:46:49.517Z,4.33
2017-02-22T01:47:59.390Z,4.31
2017-02-22T01:49:09.686Z,4.46
2017-02-22T01:50:19.971Z,4.37
2017-02-22T01:51:30.274Z,4.3
2017-02-22T01:53:32.472Z,4.33
2017-02-22T01:54:42.439Z,4.37
2017-02-22T01:55:52.612Z,4.41
2017-02-22T01:57:02.943Z,4.34
2017-02-22T01:58:12.411Z,4.46
2017-02-22T01:59:22.724Z,4.36
2017-02-22T02:00:33.158Z,4.41
2017-02-22T02:01:43.292Z,4.36
2017-02-22T02:02:52.784Z,4.4
2017-02-22T02:04:03.063Z,4.37
2017-02-22T02:05:12.914Z,4.41
2017-02-22T02:06:22.784Z,4.47
2017-02-22T02:07:33.015Z,4.38
2017-02-22T02:08:42.885Z,4.4
2017-02-22T02:09:53.136Z,4.41
2017-02-22T02:11:03.002Z,4.5
2017-02-22T02:12:13.271Z,4.47
2017-02-22T02:13:23.426Z,4.47
2017-02-22T02:14:33.691Z,4.55
2017-02-22T02:15:43.986Z,4.53
2017-02-22T02:16:53.864Z,4.56
2017-02-22T02:18:03.712Z,4.56
2017-02-22T02:19:13.832Z,4.53
2017-02-22T02:20:23.686Z,4.43
2017-02-22T02:21:33.989Z,4.5
2017-02-22T02:22:43.854Z,4.49
2017-02-22T02:23:53.713Z,4.41
2017-02-22T02:25:04.437Z,4.5
2017-02-22T02:26:14.687Z,4.4
2017-02-22T02:27:24.224Z,4.47
2017-02-22T02:28:33.282Z,4.38
2017-02-22T02:29:42.751Z,4.41
2017-02-22T02:30:53.253Z,4.49
2017-02-22T02:32:03.806Z,4.5
2017-02-22T02:35:26.337Z,4.55
2017-02-22T02:36:35.408Z,4.52
2017-02-22T02:37:44.120Z,4.52
2017-02-22T02:38:53.000Z,4.5
2017-02-22T02:40:01.714Z,4.55
2017-02-22T02:41:10.482Z,4.5
2017-02-22T02:42:19.478Z,4.57
2017-02-22T02:43:28.187Z,4.55
2017-02-22T02:44:37.366Z,4.65
2017-02-22T02:45:46.576Z,4.67
2017-02-22T02:46:55.315Z,4.57
2017-02-22T02:48:04.817Z,4.71
2017-02-22T02:49:13.532Z,4.57
2017-02-22T02:50:22.256Z,4.57
2017-02-22T02:51:31.007Z,4.74
2017-02-22T02:52:39.749Z,4.62
2017-02-22T02:53:48.710Z,4.73
2017-02-22T02:54:57.460Z,4.75
2017-02-22T02:56:06.201Z,4.71
2017-02-22T02:57:15.339Z,4.8
2017-02-22T02:58:24.581Z,4.73
2017-02-22T02:59:33.592Z,4.8
2017-02-22T03:00:42.773Z,4.83
2017-02-22T03:01:51.488Z,4.81
2017-02-22T03:03:00.230Z,4.98
2017-02-22T03:04:09.470Z,4.93
2017-02-22T03:05:18.453Z,4.96
2017-02-22T03:06:28.016Z,5
2017-02-22T03:07:36.757Z,5.04
2017-02-22T03:08:45.478Z,5.07
2017-02-22T03:09:54.607Z,5.08
2017-02-22T03:11:04.030Z,5.1
2017-02-22T03:12:13.137Z,5.14
2017-02-22T03:13:21.857Z,5.11
2017-02-22T03:14:30.567Z,5.16
2017-02-22T03:15:39.289Z,5.17
2017-02-22T03:16:48.329Z,5.08
2017-02-22T03:17:57.462Z,5.13
2017-02-22T03:19:06.991Z,5.17
2017-02-22T03:20:15.822Z,5.18
2017-02-22T03:21:24.556Z,5.18
2017-02-22T03:22:33.533Z,5.18
2017-02-22T03:23:42.654Z,5.26
2017-02-22T03:24:51.362Z,5.28
2017-02-22T03:26:00.557Z,5.22
2017-02-22T03:27:10.119Z,5.24
2017-02-22T03:28:19.084Z,5.22
2017-02-22T03:29:27.793Z,5.26
2017-02-22T03:30:36.513Z,5.25
2017-02-22T03:31:45.230Z,5.24
2017-02-22T03:32:53.975Z,5.31
2017-02-22T03:34:03.416Z,5.33
2017-02-22T03:35:13.069Z,5.28
2017-02-22T03:36:21.778Z,5.32
2017-02-22T03:37:30.497Z,5.29
2017-02-22T03:38:39.637Z,5.29
2017-02-22T03:39:48.632Z,5.4
2017-02-22T03:40:57.377Z,5.4
2017-02-22T03:42:06.645Z,5.47
2017-02-22T03:43:15.439Z,5.44
2017-02-22T03:44:24.558Z,5.51
2017-02-22T03:45:33.533Z,5.43
2017-02-22T03:46:43.089Z,5.46
2017-02-22T03:47:51.905Z,5.47
2017-02-22T03:49:00.629Z,5.53
2017-02-22T03:50:09.442Z,5.56
2017-02-22T03:51:18.434Z,5.56
2017-02-22T03:52:27.191Z,5.53
2017-02-22T03:53:36.333Z,5.59
2017-02-22T03:54:45.066Z,5.54
2017-02-22T03:55:54.193Z,5.58
2017-02-22T03:57:03.626Z,5.62
2017-02-22T03:58:12.377Z,5.71
2017-02-22T03:59:21.110Z,5.77
2017-02-22T04:00:30.254Z,5.77
2017-02-22T04:01:38.990Z,5.68
2017-02-22T04:02:47.959Z,5.8
2017-02-22T04:03:56.753Z,5.88
2017-02-22T04:05:05.901Z,5.77
2017-02-22T04:06:15.010Z,5.77
2017-02-22T04:07:24.171Z,5.83
2017-02-22T04:08:33.580Z,6.02
2017-02-22T04:09:42.337Z,5.98
2017-02-22T04:10:51.049Z,6.06
2017-02-22T04:11:59.782Z,6.17
2017-02-22T04:13:08.529Z,6.23
2017-02-22T04:14:18.038Z,6.23
2017-02-22T04:15:26.756Z,6.36
2017-02-22T04:16:35.894Z,6.41
2017-02-22T04:17:44.617Z,6.42
2017-02-22T04:18:53.355Z,6.48
2017-02-22T04:20:02.740Z,6.54
2017-02-22T04:21:11.481Z,6.52
2017-02-22T04:22:20.219Z,6.6
2017-02-22T04:23:29.354Z,6.56
2017-02-22T04:24:38.072Z,6.6
2017-02-22T04:25:47.144Z,6.66
2017-02-22T04:26:56.303Z,6.63
2017-02-22T04:28:05.117Z,6.78
2017-02-22T04:29:13.856Z,6.78
2017-02-22T04:30:22.584Z,6.79
2017-02-22T04:31:31.592Z,6.77
2017-02-22T04:32:40.354Z,6.82
2017-02-22T04:33:49.086Z,6.84
2017-02-22T04:34:58.235Z,6.81
2017-02-22T04:36:06.962Z,6.87
2017-02-22T04:37:15.933Z,6.93
2017-02-22T04:38:25.061Z,6.9
2017-02-22T04:39:33.780Z,6.97
2017-02-22T04:40:42.949Z,7.02
2017-02-22T04:41:51.760Z,6.96
2017-02-22T04:43:00.722Z,6.95
2017-02-22T04:44:09.493Z,7.03
2017-02-22T04:45:18.251Z,6.97
2017-02-22T04:46:27.010Z,7.11
2017-02-22T04:47:36.165Z,7.15
2017-02-22T04:48:45.155Z,7.06
2017-02-22T04:49:53.919Z,7.11
2017-02-22T04:51:02.653Z,7.18
2017-02-22T04:52:11.439Z,7.2
2017-02-22T04:53:20.567Z,7.24
2017-02-22T04:54:29.716Z,7.26
2017-02-22T04:55:38.866Z,7.24
2017-02-22T04:56:47.596Z,7.21
2017-02-22T04:57:56.725Z,7.26
2017-02-22T04:59:05.510Z,7.28
2017-02-22T05:00:14.586Z,7.26
2017-02-22T05:01:23.292Z,7.33
2017-02-22T05:02:32.467Z,7.47
2017-02-22T05:03:41.619Z,7.48
2017-02-22T05:04:50.337Z,7.44
2017-02-22T05:05:59.350Z,7.48
2017-02-22T05:07:08.077Z,7.55
2017-02-22T05:08:17.222Z,7.58
2017-02-22T05:09:26.386Z,7.55
2017-02-22T05:10:35.139Z,7.58
2017-02-22T05:11:44.124Z,7.56
2017-02-22T05:12:52.849Z,7.59
2017-02-22T05:14:01.613Z,7.62
2017-02-22T05:15:10.351Z,7.67
2017-02-22T05:16:19.094Z,7.61
2017-02-22T05:17:28.502Z,7.62
2017-02-22T05:18:37.657Z,7.72
2017-02-22T05:19:46.391Z,7.66
2017-02-22T05:20:55.567Z,7.67
2017-02-22T05:22:04.297Z,7.77
2017-02-22T05:23:13.695Z,7.73
2017-02-22T05:24:22.412Z,7.73
2017-02-22T05:25:31.624Z,7.82
2017-02-22T05:26:41.075Z,7.77
2017-02-22T05:27:49.855Z,7.77
2017-02-22T05:28:58.834Z,7.84
2017-02-22T05:30:07.986Z,7.79
2017-02-22T05:31:16.851Z,7.8
2017-02-22T05:32:25.608Z,7.8
2017-02-22T05:33:35.354Z,7.74
2017-02-22T05:34:44.804Z,7.77
2017-02-22T05:35:53.560Z,7.79
2017-02-22T05:37:02.434Z,7.82
2017-02-22T05:38:11.164Z,7.82
2017-02-22T05:39:20.390Z,7.85
2017-02-22T05:40:29.371Z,7.87
2017-02-22T05:41:38.106Z,7.74
2017-02-22T05:42:46.844Z,7.84
2017-02-22T05:43:56.429Z,7.88
2017-02-22T05:45:05.271Z,7.84
2017-02-22T05:46:14.246Z,7.84
2017-02-22T05:47:23.417Z,7.8
2017-02-22T05:48:32.150Z,7.84
2017-02-22T05:49:41.751Z,7.92
2017-02-22T05:50:51.423Z,7.85
2017-02-22T05:52:00.407Z,7.8
2017-02-22T05:53:09.180Z,7.91
2017-02-22T05:54:17.921Z,7.92
2017-02-22T05:55:27.058Z,7.87
2017-02-22T05:56:35.814Z,7.9
2017-02-22T05:57:45.349Z,7.87
2017-02-22T05:58:54.089Z,7.88
2017-02-22T06:00:02.813Z,7.91
2017-02-22T06:01:11.533Z,7.88
2017-02-22T06:02:20.276Z,7.95
2017-02-22T06:03:29.258Z,7.87
2017-02-22T06:04:37.996Z,7.9
2017-02-22T06:05:46.752Z,7.98
2017-02-22T06:06:56.319Z,7.95
2017-02-22T06:08:05.188Z,7.88
2017-02-22T06:09:14.194Z,7.98
2017-02-22T06:10:22.943Z,8.03
2017-02-22T06:11:32.093Z,7.9
2017-02-22T06:12:41.226Z,7.92
2017-02-22T06:13:49.953Z,8.09
2017-02-22T06:14:59.008Z,8.1
2017-02-22T06:16:07.785Z,7.98
2017-02-22T06:17:16.597Z,8.12
2017-02-22T06:18:25.325Z,7.99
2017-02-22T06:19:34.073Z,8.09
2017-02-22T06:20:43.109Z,8.12
2017-02-22T06:21:51.861Z,8.21
2017-02-22T06:23:00.618Z,8.24
2017-02-22T06:24:09.777Z,8.23
2017-02-22T06:25:18.521Z,8.23
2017-02-22T06:26:27.520Z,8.2
2017-02-22T06:27:36.410Z,8.21
2017-02-22T06:28:45.967Z,8.15
2017-02-22T06:29:54.716Z,8.24
2017-02-22T06:31:03.455Z,8.28
2017-02-22T06:32:12.435Z,8.3
2017-02-22T06:33:21.183Z,8.3
2017-02-22T06:34:30.720Z,8.32
2017-02-22T06:35:39.535Z,8.32
2017-02-22T06:36:48.256Z,8.32
2017-02-22T06:37:57.727Z,8.32
2017-02-22T06:39:06.444Z,8.37
2017-02-22T06:40:15.617Z,8.37
2017-02-22T06:41:24.767Z,8.42
2017-02-22T06:42:33.587Z,8.35
2017-02-22T06:43:43.168Z,8.42
2017-02-22T06:44:51.885Z,8.39
2017-02-22T06:46:00.616Z,8.45
2017-02-22T06:47:09.360Z,8.4
2017-02-22T06:48:18.099Z,8.48
2017-02-22T06:49:27.167Z,8.52
2017-02-22T06:50:35.892Z,8.49
2017-02-22T06:51:45.170Z,8.49
2017-02-22T06:52:54.407Z,8.5
2017-02-22T06:54:03.170Z,8.49
2017-02-22T06:55:13.048Z,8.5
2017-02-22T06:56:21.978Z,8.53
2017-02-22T06:57:30.752Z,8.5
2017-02-22T06:58:39.644Z,8.49
2017-02-22T06:59:48.377Z,8.5
2017-02-22T07:00:57.795Z,8.48
2017-02-22T07:02:06.946Z,8.52
2017-02-22T07:03:15.730Z,8.49
2017-02-22T07:04:25.307Z,8.55
2017-02-22T07:05:34.914Z,8.5
2017-02-22T07:06:44.301Z,8.52
2017-02-22T07:07:53.043Z,8.5
2017-02-22T07:09:02.174Z,8.5
2017-02-22T07:10:10.958Z,8.57
2017-02-22T07:11:20.531Z,8.52
2017-02-22T07:12:29.938Z,8.6
2017-02-22T07:13:38.674Z,8.48
2017-02-22T07:14:47.407Z,8.58
2017-02-22T07:15:56.144Z,8.5
2017-02-22T07:17:05.322Z,8.55
2017-02-22T07:18:14.348Z,8.55
2017-02-22T07:19:23.082Z,8.48
2017-02-22T07:20:31.836Z,8.53
2017-02-22T07:21:40.981Z,8.5
2017-02-22T07:22:49.727Z,8.53
2017-02-22T07:23:58.725Z,8.57
2017-02-22T07:25:07.491Z,8.57
2017-02-22T07:26:16.205Z,8.49
2017-02-22T07:27:24.944Z,8.52
2017-02-22T07:28:34.087Z,8.52
2017-02-22T07:29:43.554Z,8.55
2017-02-22T07:30:52.334Z,8.49
2017-02-22T07:32:01.506Z,8.55
2017-02-22T07:33:10.230Z,8.53
2017-02-22T07:34:18.968Z,8.55
2017-02-22T07:35:27.948Z,8.57
2017-02-22T07:36:36.690Z,8.55
2017-02-22T07:37:45.852Z,8.5
2017-02-22T07:38:55.119Z,8.55
2017-02-22T07:40:04.698Z,8.57
2017-02-22T07:41:13.705Z,8.53
2017-02-22T07:42:22.451Z,8.57
2017-02-22T07:43:31.177Z,8.63
2017-02-22T07:44:39.951Z,8.57
2017-02-22T07:45:48.697Z,8.53
2017-02-22T07:46:58.115Z,8.5
2017-02-22T07:48:06.864Z,8.58
2017-02-22T07:49:15.623Z,8.55
2017-02-22T07:50:24.367Z,8.61
2017-02-22T07:51:33.119Z,8.6
2017-02-22T07:52:42.085Z,8.74
2017-02-22T07:53:50.803Z,8.63
2017-02-22T07:54:59.549Z,8.66
2017-02-22T07:56:08.285Z,8.66
2017-02-22T07:57:17.990Z,8.64
2017-02-22T07:58:27.500Z,8.64
2017-02-22T07:59:36.266Z,8.67
2017-02-22T08:00:45.007Z,8.6
2017-02-22T08:01:53.746Z,8.63
2017-02-22T08:03:02.480Z,8.7
2017-02-22T08:04:11.487Z,8.58
2017-02-22T08:05:20.223Z,8.64
2017-02-22T08:06:29.158Z,8.66
2017-02-22T08:07:38.307Z,8.58
2017-02-22T08:08:47.471Z,8.6
2017-02-22T08:09:56.891Z,8.61
2017-02-22T08:11:06.476Z,8.7
2017-02-22T08:12:16.068Z,8.66
2017-02-22T08:13:24.806Z,8.6
2017-02-22T08:14:34.800Z,8.66
2017-02-22T08:15:43.796Z,8.66
2017-02-22T08:16:52.527Z,8.63
2017-02-22T08:18:01.255Z,8.66
2017-02-22T08:19:10.004Z,8.66
2017-02-22T08:20:19.159Z,8.6
2017-02-22T08:21:28.148Z,8.67
2017-02-22T08:22:37.315Z,8.58
2017-02-22T08:23:46.079Z,8.63
2017-02-22T08:24:55.254Z,8.63
2017-02-22T08:26:04.016Z,8.63
2017-02-22T08:27:13.006Z,8.63
2017-02-22T08:28:21.749Z,8.58
2017-02-22T08:29:30.900Z,8.58
2017-02-22T08:30:40.284Z,8.58
2017-02-22T08:31:49.440Z,8.63
2017-02-22T08:32:59.297Z,8.57
2017-02-22T08:34:08.070Z,8.68
2017-02-22T08:35:16.817Z,8.6
2017-02-22T08:36:25.970Z,8.5
2017-02-22T08:37:34.721Z,8.6
2017-02-22T08:38:43.726Z,8.66
2017-02-22T08:39:52.861Z,8.61
2017-02-22T08:41:02.030Z,8.58
2017-02-22T08:42:10.791Z,8.63
2017-02-22T08:43:19.659Z,8.63
2017-02-22T08:44:28.646Z,8.63
2017-02-22T08:45:37.364Z,8.66
2017-02-22T08:46:46.101Z,8.67
2017-02-22T08:47:54.839Z,8.61
2017-02-22T08:49:03.590Z,8.6
2017-02-22T08:50:12.605Z,8.67
2017-02-22T08:51:21.533Z,8.64
2017-02-22T08:52:31.376Z,8.75
2017-02-22T08:53:40.526Z,8.74
2017-02-22T08:54:50.074Z,8.71
2017-02-22T08:55:59.568Z,8.7
2017-02-22T08:57:08.313Z,8.68
2017-02-22T08:58:17.459Z,8.71
2017-02-22T08:59:26.672Z,8.75
2017-02-22T09:00:35.422Z,8.7
2017-02-22T09:01:44.821Z,8.71
2017-02-22T09:02:53.941Z,8.67
2017-02-22T09:04:02.676Z,8.84
2017-02-22T09:05:11.442Z,8.86
2017-02-22T09:06:20.617Z,8.84
2017-02-22T09:07:30.016Z,8.8
2017-02-22T09:08:38.763Z,8.92
2017-02-22T09:09:47.534Z,8.9
2017-02-22T09:10:56.262Z,8.86
2017-02-22T09:12:05.424Z,8.89
2017-02-22T09:13:15.248Z,8.92
2017-02-22T09:14:24.400Z,8.87
2017-02-22T09:15:33.121Z,8.93
2017-02-22T09:16:41.862Z,9.04
2017-02-22T09:17:50.599Z,9.01
2017-02-22T09:18:59.990Z,9.08
2017-02-22T09:20:08.725Z,9.16
2017-02-22T09:21:17.488Z,9.27
2017-02-22T09:22:26.214Z,9.4
2017-02-22T09:23:35.139Z,9.52
2017-02-22T09:24:44.214Z,9.55
2017-02-22T09:25:53.774Z,9.52
2017-02-22T09:27:03.364Z,9.59
2017-02-22T09:28:12.643Z,9.5
2017-02-22T09:29:21.399Z,9.42
2017-02-22T09:30:30.387Z,9.38
2017-02-22T09:31:39.163Z,9.44
2017-02-22T09:32:47.926Z,9.4
2017-02-22T09:33:57.101Z,9.45
2017-02-22T09:35:06.304Z,9.42
2017-02-22T09:36:15.715Z,9.44
2017-02-22T09:37:24.458Z,9.34
2017-02-22T09:38:33.208Z,9.38
2017-02-22T09:39:41.951Z,9.38
2017-02-22T09:40:50.700Z,9.34
2017-02-22T09:42:00.793Z,9.33
2017-02-22T09:43:09.928Z,9.33
2017-02-22T09:44:19.494Z,9.26
2017-02-22T09:45:28.673Z,9.34
2017-02-22T09:46:37.823Z,9.34
2017-02-22T09:47:46.820Z,9.26
2017-02-22T09:48:55.567Z,9.34
2017-02-22T09:50:05.165Z,9.41
2017-02-22T09:51:15.147Z,9.4
2017-02-22T09:52:23.875Z,9.41
2017-02-22T09:53:33.737Z,9.47
2017-02-22T09:54:43.712Z,9.38
2017-02-22T09:55:52.855Z,9.34
2017-02-22T09:57:01.660Z,9.56
2017-02-22T09:58:10.408Z,9.53
2017-02-22T09:59:20.624Z,9.53
2017-02-22T10:00:29.875Z,9.66
2017-02-22T10:01:38.615Z,9.52
2017-02-22T10:02:47.799Z,9.63
2017-02-22T10:03:56.992Z,9.62
2017-02-22T10:05:06.395Z,9.48
2017-02-22T10:06:15.137Z,9.53
2017-02-22T10:07:23.894Z,9.52
2017-02-22T10:08:32.640Z,9.52
2017-02-22T10:09:41.812Z,9.6
2017-02-22T10:10:50.951Z,9.62
2017-02-22T10:12:00.145Z,9.62
2017-02-22T10:13:08.883Z,9.63
2017-02-22T10:14:17.619Z,9.73
2017-02-22T10:15:26.433Z,9.67
2017-02-22T10:16:35.404Z,9.74
2017-02-22T10:17:44.729Z,9.73
2017-02-22T10:18:53.996Z,9.67
2017-02-22T10:20:03.136Z,9.62
2017-02-22T10:21:11.894Z,9.59
2017-02-22T10:22:20.922Z,9.67
2017-02-22T10:23:30.073Z,9.67
2017-02-22T10:24:38.852Z,9.59
2017-02-22T10:25:48.428Z,9.73
2017-02-22T10:26:57.289Z,9.8
2017-02-22T10:28:07.109Z,9.67
2017-02-22T10:29:16.260Z,9.77
2017-02-22T10:30:25.465Z,9.89
2017-02-22T10:31:34.214Z,9.99
2017-02-22T10:32:43.415Z,10
2017-02-22T10:33:52.403Z,10.03
2017-02-22T10:35:01.206Z,10.11
2017-02-22T10:36:09.966Z,10.08
2017-02-22T10:37:19.139Z,10.05
2017-02-22T10:38:28.335Z,9.93
2017-02-22T10:39:38.156Z,9.91
2017-02-22T10:40:46.895Z,9.88
2017-02-22T10:41:55.640Z,9.81
2017-02-22T10:43:04.789Z,9.77
2017-02-22T10:44:13.586Z,9.8
2017-02-22T10:45:22.978Z,9.81
2017-02-22T10:46:31.754Z,9.74
2017-02-22T10:47:40.922Z,9.78
2017-02-22T10:48:49.685Z,9.73
2017-02-22T10:49:58.875Z,9.74
2017-02-22T10:51:08.269Z,9.78
2017-02-22T10:52:17.420Z,9.78
2017-02-22T10:53:26.159Z,9.7
2017-02-22T10:54:35.349Z,9.62
2017-02-22T10:55:44.186Z,9.71
2017-02-22T10:56:53.640Z,9.77
2017-02-22T10:58:02.422Z,9.65
2017-02-22T10:59:11.188Z,9.67
2017-02-22T11:00:20.394Z,9.77
2017-02-22T11:01:29.218Z,9.67
2017-02-22T11:02:38.692Z,9.77
2017-02-22T11:03:47.874Z,9.78
2017-02-22T11:04:56.618Z,9.83
2017-02-22T11:06:05.787Z,9.81
2017-02-22T11:07:15.092Z,9.81
2017-02-22T11:08:24.092Z,9.81
2017-02-22T11:09:32.847Z,9.84
2017-02-22T11:10:42.475Z,9.75
2017-02-22T11:11:51.651Z,9.81
2017-02-22T11:13:00.417Z,9.75
2017-02-22T11:14:09.840Z,9.78
2017-02-22T11:15:18.619Z,9.78
2017-02-22T11:16:27.800Z,9.85
2017-02-22T11:17:37.110Z,9.75
2017-02-22T11:18:46.298Z,9.8
2017-02-22T11:19:55.316Z,9.81
2017-02-22T11:21:04.488Z,9.77
2017-02-22T11:22:13.356Z,9.74
2017-02-22T11:23:22.943Z,9.71
2017-02-22T11:24:31.703Z,9.67
2017-02-22T11:25:40.710Z,9.75
2017-02-22T11:26:49.901Z,9.75
2017-02-22T11:27:58.857Z,9.77
2017-02-22T11:29:08.077Z,9.8
2017-02-22T11:30:16.832Z,9.77
2017-02-22T11:31:25.835Z,9.77
2017-02-22T11:32:34.630Z,9.77
2017-02-22T11:33:43.798Z,9.73
2017-02-22T11:34:52.659Z,9.73
2017-02-22T11:36:01.852Z,9.75
2017-02-22T11:37:10.909Z,9.81
2017-02-22T11:38:20.074Z,9.92
2017-02-22T11:39:28.835Z,9.85
2017-02-22T11:40:38.009Z,9.89
2017-02-22T11:41:47.208Z,9.91
2017-02-22T11:42:56.235Z,9.98
2017-02-22T11:44:05.005Z,10.13
2017-02-22T11:45:14.161Z,10.21
2017-02-22T11:46:22.925Z,10.13
2017-02-22T11:47:32.098Z,10.22
2017-02-22T11:48:41.213Z,10.17
2017-02-22T11:49:49.976Z,10.15
2017-02-22T11:50:58.771Z,10.11
2017-02-22T11:52:07.514Z,10.13
2017-02-22T11:53:16.686Z,10.17
2017-02-22T11:54:26.132Z,10.11
2017-02-22T11:55:34.936Z,10.13
2017-02-22T11:56:43.726Z,10.13
2017-02-22T11:57:52.530Z,10.13
2017-02-22T11:59:01.810Z,10.15
2017-02-22T12:00:11.665Z,10.15
2017-02-22T12:01:20.465Z,10.27
2017-02-22T12:02:29.729Z,10.4
2017-02-22T12:03:38.890Z,10.57
2017-02-22T12:04:48.456Z,10.73
2017-02-22T12:05:57.909Z,10.85
2017-02-22T12:07:07.100Z,11.08
2017-02-22T12:08:17.153Z,11.13
2017-02-22T12:09:25.921Z,11.28
2017-02-22T12:10:35.531Z,11.42
2017-02-22T12:11:44.580Z,11.38
2017-02-22T12:12:53.350Z,11.35
2017-02-22T12:14:02.698Z,11.42
2017-02-22T12:15:11.914Z,11.43
2017-02-22T12:16:21.102Z,11.58
2017-02-22T12:17:30.116Z,11.68
2017-02-22T12:18:39.281Z,11.74
2017-02-22T12:19:48.060Z,11.89
2017-02-22T12:20:56.838Z,12.05
2017-02-22T12:22:06.018Z,12.17
2017-02-22T12:23:15.252Z,12.27
2017-02-22T12:24:24.050Z,12.27
2017-02-22T12:25:32.827Z,12.38
2017-02-22T12:26:42.109Z,12.47
2017-02-22T12:27:50.868Z,12.53
2017-02-22T12:29:00.284Z,12.38
2017-02-22T12:30:09.481Z,12.35
2017-02-22T12:31:18.277Z,12.23
2017-02-22T12:32:27.038Z,12.11
2017-02-22T12:33:36.981Z,12.08
2017-02-22T12:34:45.743Z,12.01
2017-02-22T12:35:54.513Z,11.89
2017-02-22T12:37:03.301Z,11.74
2017-02-22T12:38:12.862Z,11.43
2017-02-22T12:39:22.358Z,11.42
2017-02-22T12:40:31.528Z,11.38
2017-02-22T12:41:40.731Z,11.38
2017-02-22T12:42:50.017Z,11.39
2017-02-22T12:43:59.189Z,11.38
2017-02-22T12:45:09.084Z,11.39
2017-02-22T12:46:17.878Z,11.4
2017-02-22T12:47:27.056Z,11.4
2017-02-22T12:48:36.621Z,11.34
2017-02-22T12:49:45.415Z,11.45
2017-02-22T12:50:54.529Z,11.28
2017-02-22T12:52:03.727Z,11.39
2017-02-22T12:53:14.374Z,11.39
2017-02-22T12:54:23.566Z,11.57
2017-02-22T12:55:32.335Z,11.52
2017-02-22T12:56:42.152Z,11.53
2017-02-22T12:57:51.444Z,11.45
2017-02-22T12:59:01.088Z,11.46
2017-02-22T13:00:10.268Z,11.58
2017-02-22T13:01:19.023Z,11.59
2017-02-22T13:02:28.481Z,11.58
2017-02-22T13:03:38.091Z,11.57
2017-02-22T13:04:46.867Z,11.59
2017-02-22T13:05:56.402Z,11.42
2017-02-22T13:07:05.544Z,11.46
2017-02-22T13:08:15.360Z,11.34
2017-02-22T13:09:24.544Z,11.25
2017-02-22T13:10:34.121Z,11.25
2017-02-22T13:11:43.296Z,11.27
2017-02-22T13:12:52.054Z,11.09
2017-02-22T13:14:01.893Z,11.12
2017-02-22T13:15:11.108Z,11.05
2017-02-22T13:16:20.256Z,10.91
2017-02-22T13:17:28.996Z,10.85
2017-02-22T13:18:37.735Z,10.85
2017-02-22T13:19:47.122Z,10.8
2017-02-22T13:20:56.711Z,10.73
2017-02-22T13:22:06.245Z,10.63
2017-02-22T13:23:16.250Z,10.59
2017-02-22T13:24:25.792Z,10.52
2017-02-22T13:25:35.181Z,10.37
2017-02-22T13:26:44.341Z,10.27
2017-02-22T13:27:53.885Z,10.33
2017-02-22T13:29:03.461Z,10.34
2017-02-22T13:30:12.631Z,10.21
2017-02-22T13:31:22.422Z,10.17
2017-02-22T13:32:32.375Z,10.17
2017-02-22T13:33:41.927Z,10.08
2017-02-22T13:34:51.067Z,10.03
2017-02-22T13:36:00.596Z,10
2017-02-22T13:37:09.777Z,9.88
2017-02-22T13:38:18.925Z,9.91
2017-02-22T13:39:28.082Z,9.8
2017-02-22T13:40:37.639Z,9.71
2017-02-22T13:41:47.601Z,9.63
2017-02-22T13:42:57.409Z,9.78
2017-02-22T13:44:07.359Z,9.67
2017-02-22T13:45:17.695Z,9.67
2017-02-22T13:46:28.170Z,9.63
2017-02-22T13:47:38.508Z,9.59
2017-02-22T13:48:49.151Z,9.6
2017-02-22T13:49:59.076Z,9.56
2017-02-22T13:51:09.098Z,9.5
2017-02-22T13:52:19.492Z,9.55
2017-02-22T13:53:29.873Z,9.58
2017-02-22T13:54:40.495Z,9.53
2017-02-22T13:55:51.013Z,9.4
2017-02-22T13:57:01.354Z,9.37
2017-02-22T13:58:11.737Z,9.45
2017-02-22T13:59:21.290Z,9.44
2017-02-22T14:00:31.914Z,9.41
2017-02-22T14:01:41.479Z,9.35
2017-02-22T14:02:51.465Z,9.35
2017-02-22T14:04:01.422Z,9.25
2017-02-22T14:05:11.803Z,9.3
2017-02-22T14:06:22.400Z,9.23
2017-02-22T14:07:32.442Z,9.11
2017-02-22T14:08:42.787Z,9.01
2017-02-22T14:09:53.161Z,8.97
2017-02-22T14:11:03.120Z,8.92
2017-02-22T14:12:13.754Z,8.71
2017-02-22T14:13:24.074Z,8.74
2017-02-22T14:14:34.435Z,8.66
2017-02-22T14:15:44.787Z,8.52
2017-02-22T14:16:55.174Z,8.45
2017-02-22T14:18:05.352Z,8.5
2017-02-22T14:19:15.685Z,8.45
2017-02-22T14:20:26.084Z,8.34
2017-02-22T14:21:36.428Z,8.39
2017-02-22T14:22:46.391Z,8.35
2017-02-22T14:23:56.991Z,8.4
2017-02-22T14:25:07.070Z,8.3
2017-02-22T14:26:17.466Z,8.3
2017-02-22T14:27:27.837Z,8.32
2017-02-22T14:28:38.316Z,8.31
2017-02-22T14:29:48.938Z,8.24
2017-02-22T14:30:59.326Z,8.21
2017-02-22T14:32:09.669Z,8.17
2017-02-22T14:33:20.045Z,8.23
2017-02-22T14:34:30.439Z,8.21
2017-02-22T14:35:41.072Z,8.16
2017-02-22T14:36:51.434Z,8.13
2017-02-22T14:38:01.773Z,8.21
2017-02-22T14:39:12.169Z,8.15
2017-02-22T14:40:22.538Z,8.24
2017-02-22T14:41:33.158Z,8.13
2017-02-22T14:42:43.543Z,8.13
2017-02-22T14:43:53.882Z,8.17
2017-02-22T14:45:04.279Z,8.2
2017-02-22T14:46:14.252Z,8.17
2017-02-22T14:47:24.854Z,8.21
2017-02-22T14:48:35.253Z,8.15
2017-02-22T14:49:45.664Z,8.1
2017-02-22T14:50:56.067Z,7.99
2017-02-22T14:52:06.567Z,8.03
2017-02-22T14:53:16.941Z,8.07
2017-02-22T14:54:27.295Z,7.98
2017-02-22T14:55:37.728Z,7.91
2017-02-22T14:56:47.756Z,7.9
2017-02-22T14:57:58.149Z,7.82
2017-02-22T14:59:08.404Z,7.87
2017-02-22T15:00:18.803Z,7.85
2017-02-22T15:01:29.162Z,7.85
2017-02-22T15:02:39.573Z,7.85
2017-02-22T15:03:50.050Z,7.87
2017-02-22T15:05:00.681Z,7.76
2017-02-22T15:06:11.013Z,7.76
2017-02-22T15:07:21.010Z,7.8
2017-02-22T15:08:31.394Z,7.76
2017-02-22T15:09:40.993Z,7.76
2017-02-22T15:10:51.695Z,7.74
2017-02-22T15:12:02.082Z,7.77
2017-02-22T15:13:12.027Z,7.79
2017-02-22T15:14:22.377Z,7.82
2017-02-22T15:15:32.789Z,7.82
2017-02-22T15:16:43.055Z,7.79
2017-02-22T15:17:53.447Z,7.74
2017-02-22T15:19:03.817Z,7.8
2017-02-22T15:20:14.198Z,7.77
2017-02-22T15:21:24.274Z,7.74
2017-02-22T15:22:35.023Z,7.79
2017-02-22T15:23:45.548Z,7.72
2017-02-22T15:24:55.944Z,7.77
2017-02-22T15:26:05.927Z,7.79